sensor_id;sensor_type;location;lat;lon;timestamp;pressure;altitude;pressure_sealevel;temperature;humidity
43364;BME280;40636;52.424;-1.948;2023-11-21T00:00:35;100112.84;;;9.86;87.35
43364;BME280;40636;52.424;-1.948;2023-11-21T00:03:02;100111.13;;;9.85;86.69
43364;BME280;40636;52.424;-1.948;2023-11-21T00:05:30;100118.03;;;9.86;86.86
43364;BME280;40636;52.424;-1.948;2023-11-21T00:07:57;100112.00;;;9.84;86.48
43364;BME280;40636;52.424;-1.948;2023-11-21T00:10:24;100118.06;;;9.85;86.56
43364;BME280;40636;52.424;-1.948;2023-11-21T00:12:51;100118.06;;;9.83;86.39
43364;BME280;40636;52.424;-1.948;2023-11-21T00:15:17;100125.84;;;9.83;86.63
43364;BME280;40636;52.424;-1.948;2023-11-21T00:17:45;100121.50;;;9.82;87.04
43364;BME280;40636;52.424;-1.948;2023-11-21T00:20:13;100129.31;;;9.83;86.72
43364;BME280;40636;52.424;-1.948;2023-11-21T00:22:40;100140.53;;;9.84;86.62
43364;BME280;40636;52.424;-1.948;2023-11-21T00:25:07;100137.06;;;9.82;86.59
43364;BME280;40636;52.424;-1.948;2023-11-21T00:27:36;100154.38;;;9.83;86.53
43364;BME280;40636;52.424;-1.948;2023-11-21T00:30:03;100149.19;;;9.83;86.50
43364;BME280;40636;52.424;-1.948;2023-11-21T00:32:35;100150.91;;;9.84;86.64
43364;BME280;40636;52.424;-1.948;2023-11-21T00:35:02;100158.69;;;9.84;87.20
43364;BME280;40636;52.424;-1.948;2023-11-21T00:37:29;100157.84;;;9.83;87.25
43364;BME280;40636;52.424;-1.948;2023-11-21T00:39:58;100150.91;;;9.84;87.00
43364;BME280;40636;52.424;-1.948;2023-11-21T00:42:24;100163.91;;;9.84;87.28
43364;BME280;40636;52.424;-1.948;2023-11-21T00:44:51;100158.69;;;9.86;86.50
43364;BME280;40636;52.424;-1.948;2023-11-21T00:47:18;100168.22;;;9.87;87.08
43364;BME280;40636;52.424;-1.948;2023-11-21T00:49:45;100164.75;;;9.86;87.01
43364;BME280;40636;52.424;-1.948;2023-11-21T00:52:12;100172.53;;;9.86;87.14
43364;BME280;40636;52.424;-1.948;2023-11-21T00:54:38;100171.66;;;9.87;86.61
43364;BME280;40636;52.424;-1.948;2023-11-21T00:57:06;100178.59;;;9.88;87.00
43364;BME280;40636;52.424;-1.948;2023-11-21T00:59:35;100178.59;;;9.88;87.02
43364;BME280;40636;52.424;-1.948;2023-11-21T01:02:02;100182.03;;;9.89;86.74
43364;BME280;40636;52.424;-1.948;2023-11-21T01:04:31;100177.72;;;9.88;86.57
43364;BME280;40636;52.424;-1.948;2023-11-21T01:07:01;100189.81;;;9.89;86.98
43364;BME280;40636;52.424;-1.948;2023-11-21T01:09:28;100193.28;;;9.91;86.55
43364;BME280;40636;52.424;-1.948;2023-11-21T01:11:54;100194.16;;;9.90;86.76
43364;BME280;40636;52.424;-1.948;2023-11-21T01:14:21;100196.72;;;9.91;86.52
43364;BME280;40636;52.424;-1.948;2023-11-21T01:16:48;100201.06;;;9.92;87.04
43364;BME280;40636;52.424;-1.948;2023-11-21T01:19:15;100220.09;;;9.90;86.59
43364;BME280;40636;52.424;-1.948;2023-11-21T01:21:42;100203.66;;;9.91;86.67
43364;BME280;40636;52.424;-1.948;2023-11-21T01:24:09;100216.63;;;9.91;86.86
43364;BME280;40636;52.424;-1.948;2023-11-21T01:26:36;100215.75;;;9.92;86.86
43364;BME280;40636;52.424;-1.948;2023-11-21T01:29:03;100227.00;;;9.92;86.67
43364;BME280;40636;52.424;-1.948;2023-11-21T01:31:29;100230.47;;;9.93;86.92
43364;BME280;40636;52.424;-1.948;2023-11-21T01:33:56;100233.06;;;9.93;86.36
43364;BME280;40636;52.424;-1.948;2023-11-21T01:36:30;100233.06;;;9.91;86.87
43364;BME280;40636;52.424;-1.948;2023-11-21T01:38:59;100237.38;;;9.92;86.54
43364;BME280;40636;52.424;-1.948;2023-11-21T01:41:26;100258.16;;;9.91;86.49
43364;BME280;40636;52.424;-1.948;2023-11-21T01:43:54;100261.59;;;9.91;86.88
43364;BME280;40636;52.424;-1.948;2023-11-21T01:46:22;100262.47;;;9.90;86.19
43364;BME280;40636;52.424;-1.948;2023-11-21T01:48:50;100259.03;;;9.90;86.63
43364;BME280;40636;52.424;-1.948;2023-11-21T01:51:17;100269.41;;;9.90;86.31
43364;BME280;40636;52.424;-1.948;2023-11-21T01:53:45;100271.13;;;9.89;86.92
43364;BME280;40636;52.424;-1.948;2023-11-21T01:56:13;100277.19;;;9.88;86.84
43364;BME280;40636;52.424;-1.948;2023-11-21T01:58:41;100296.22;;;9.89;86.60
43364;BME280;40636;52.424;-1.948;2023-11-21T02:01:08;100286.69;;;9.88;86.79
43364;BME280;40636;52.424;-1.948;2023-11-21T02:03:36;100295.34;;;9.88;86.56
43364;BME280;40636;52.424;-1.948;2023-11-21T02:06:03;100303.13;;;9.88;86.62
43364;BME280;40636;52.424;-1.948;2023-11-21T02:08:30;100301.41;;;9.90;86.50
43364;BME280;40636;52.424;-1.948;2023-11-21T02:10:58;100307.44;;;9.91;86.77
43364;BME280;40636;52.424;-1.948;2023-11-21T02:13:24;100316.97;;;9.92;86.40
43364;BME280;40636;52.424;-1.948;2023-11-21T02:15:51;100315.25;;;9.91;86.41
43364;BME280;40636;52.424;-1.948;2023-11-21T02:18:20;100316.09;;;9.91;86.35
43364;BME280;40636;52.424;-1.948;2023-11-21T02:20:48;100320.44;;;9.89;86.22
43364;BME280;40636;52.424;-1.948;2023-11-21T02:23:15;100326.47;;;9.90;86.59
43364;BME280;40636;52.424;-1.948;2023-11-21T02:25:42;100322.16;;;9.89;86.48
43364;BME280;40636;52.424;-1.948;2023-11-21T02:28:09;100326.47;;;9.90;86.30
43364;BME280;40636;52.424;-1.948;2023-11-21T02:30:39;100328.22;;;9.89;86.12
43364;BME280;40636;52.424;-1.948;2023-11-21T02:33:06;100316.09;;;9.88;86.09
43364;BME280;40636;52.424;-1.948;2023-11-21T02:35:33;100325.63;;;9.86;86.01
43364;BME280;40636;52.424;-1.948;2023-11-21T02:38:01;100326.50;;;9.85;86.23
43364;BME280;40636;52.424;-1.948;2023-11-21T02:40:29;100325.59;;;9.81;86.00
43364;BME280;40636;52.424;-1.948;2023-11-21T02:42:56;100323.00;;;9.80;86.14
43364;BME280;40636;52.424;-1.948;2023-11-21T02:45:26;100335.09;;;9.79;85.22
43364;BME280;40636;52.424;-1.948;2023-11-21T02:47:53;100336.84;;;9.77;84.90
43364;BME280;40636;52.424;-1.948;2023-11-21T02:50:20;100329.06;;;9.74;84.49
43364;BME280;40636;52.424;-1.948;2023-11-21T02:52:49;100337.69;;;9.73;83.72
43364;BME280;40636;52.424;-1.948;2023-11-21T02:55:16;100337.69;;;9.72;83.63
43364;BME280;40636;52.424;-1.948;2023-11-21T02:57:43;100340.28;;;9.72;84.12
43364;BME280;40636;52.424;-1.948;2023-11-21T03:00:10;100356.72;;;9.72;84.08
43364;BME280;40636;52.424;-1.948;2023-11-21T03:02:40;100367.97;;;9.70;84.02
43364;BME280;40636;52.424;-1.948;2023-11-21T03:05:07;100381.81;;;9.70;83.29
43364;BME280;40636;52.424;-1.948;2023-11-21T03:07:37;100380.94;;;9.70;84.07
43364;BME280;40636;52.424;-1.948;2023-11-21T03:10:05;100382.66;;;9.69;83.48
43364;BME280;40636;52.424;-1.948;2023-11-21T03:12:32;100389.56;;;9.66;83.84
43364;BME280;40636;52.424;-1.948;2023-11-21T03:14:59;100386.13;;;9.67;83.18
43364;BME280;40636;52.424;-1.948;2023-11-21T03:17:26;100395.63;;;9.65;83.63
43364;BME280;40636;52.424;-1.948;2023-11-21T03:19:52;100395.63;;;9.63;83.12
43364;BME280;40636;52.424;-1.948;2023-11-21T03:22:19;100391.31;;;9.61;82.15
43364;BME280;40636;52.424;-1.948;2023-11-21T03:24:46;100390.44;;;9.59;81.40
43364;BME280;40636;52.424;-1.948;2023-11-21T03:27:13;100398.22;;;9.57;81.20
43364;BME280;40636;52.424;-1.948;2023-11-21T03:29:39;100401.66;;;9.55;81.89
43364;BME280;40636;52.424;-1.948;2023-11-21T03:32:07;100412.91;;;9.54;81.19
43364;BME280;40636;52.424;-1.948;2023-11-21T03:34:34;100416.38;;;9.52;82.03
43364;BME280;40636;52.424;-1.948;2023-11-21T03:37:00;100424.13;;;9.51;81.80
43364;BME280;40636;52.424;-1.948;2023-11-21T03:39:27;100414.63;;;9.50;81.36
43364;BME280;40636;52.424;-1.948;2023-11-21T03:41:56;100429.31;;;9.48;81.15
43364;BME280;40636;52.424;-1.948;2023-11-21T03:44:22;100425.00;;;9.47;81.31
43364;BME280;40636;52.424;-1.948;2023-11-21T03:46:49;100422.38;;;9.42;nan
43364;BME280;40636;52.424;-1.948;2023-11-21T03:49:16;100424.97;;;9.42;80.25
43364;BME280;40636;52.424;-1.948;2023-11-21T03:51:43;100434.47;;;9.40;79.95
43364;BME280;40636;52.424;-1.948;2023-11-21T03:54:10;100436.22;;;9.40;79.09
43364;BME280;40636;52.424;-1.948;2023-11-21T03:56:37;100444.84;;;9.37;78.75
43364;BME280;40636;52.424;-1.948;2023-11-21T03:59:04;100446.56;;;9.38;79.20
43364;BME280;40636;52.424;-1.948;2023-11-21T04:01:30;100448.31;;;9.38;79.32
43364;BME280;40636;52.424;-1.948;2023-11-21T04:03:57;100458.69;;;9.38;79.51
43364;BME280;40636;52.424;-1.948;2023-11-21T04:06:24;100469.91;;;9.38;79.52
43364;BME280;40636;52.424;-1.948;2023-11-21T04:08:51;100463.00;;;9.36;78.67
43364;BME280;40636;52.424;-1.948;2023-11-21T04:11:18;100464.72;;;9.34;79.44
43364;BME280;40636;52.424;-1.948;2023-11-21T04:13:45;100467.28;;;9.32;79.36
43364;BME280;40636;52.424;-1.948;2023-11-21T04:16:13;100477.66;;;9.32;79.87
43364;BME280;40636;52.424;-1.948;2023-11-21T04:18:40;100474.19;;;9.29;79.95
43364;BME280;40636;52.424;-1.948;2023-11-21T04:21:07;100476.78;;;9.29;80.26
43364;BME280;40636;52.424;-1.948;2023-11-21T04:23:35;100484.56;;;9.27;80.05
43364;BME280;40636;52.424;-1.948;2023-11-21T04:26:02;100477.66;;;9.26;80.01
43364;BME280;40636;52.424;-1.948;2023-11-21T04:28:29;100490.59;;;9.26;79.90
43364;BME280;40636;52.424;-1.948;2023-11-21T04:30:56;100489.69;;;9.21;79.50
43364;BME280;40636;52.424;-1.948;2023-11-21T04:33:23;100483.63;;;9.19;78.30
43364;BME280;40636;52.424;-1.948;2023-11-21T04:35:50;100485.34;;;9.18;78.63
43364;BME280;40636;52.424;-1.948;2023-11-21T04:38:17;100487.94;;;9.17;78.01
43364;BME280;40636;52.424;-1.948;2023-11-21T04:40:44;100493.97;;;9.16;78.58
43364;BME280;40636;52.424;-1.948;2023-11-21T04:43:10;100492.25;;;9.15;77.90
43364;BME280;40636;52.424;-1.948;2023-11-21T04:45:37;100497.41;;;9.13;78.49
43364;BME280;40636;52.424;-1.948;2023-11-21T04:48:04;100506.91;;;9.11;78.26
43364;BME280;40636;52.424;-1.948;2023-11-21T04:50:33;100512.09;;;9.13;78.01
43364;BME280;40636;52.424;-1.948;2023-11-21T04:53:00;100512.97;;;9.13;78.06
43364;BME280;40636;52.424;-1.948;2023-11-21T04:55:26;100515.56;;;9.15;78.30
43364;BME280;40636;52.424;-1.948;2023-11-21T04:57:54;100515.56;;;9.12;78.70
43364;BME280;40636;52.424;-1.948;2023-11-21T05:00:21;100515.56;;;9.13;78.17
43364;BME280;40636;52.424;-1.948;2023-11-21T05:02:48;100528.53;;;9.13;78.41
43364;BME280;40636;52.424;-1.948;2023-11-21T05:05:15;100529.38;;;9.12;78.64
43364;BME280;40636;52.424;-1.948;2023-11-21T05:07:42;100538.88;;;9.12;79.07
43364;BME280;40636;52.424;-1.948;2023-11-21T05:10:09;100533.69;;;9.12;78.62
43364;BME280;40636;52.424;-1.948;2023-11-21T05:12:40;100528.50;;;9.09;78.17
43364;BME280;40636;52.424;-1.948;2023-11-21T05:15:08;100539.72;;;9.08;78.48
43364;BME280;40636;52.424;-1.948;2023-11-21T05:17:38;100531.09;;;9.09;79.58
43364;BME280;40636;52.424;-1.948;2023-11-21T05:20:13;100540.59;;;9.10;79.53
43364;BME280;40636;52.424;-1.948;2023-11-21T05:22:41;100543.19;;;9.10;79.03
43364;BME280;40636;52.424;-1.948;2023-11-21T05:25:09;100542.31;;;9.06;79.63
43364;BME280;40636;52.424;-1.948;2023-11-21T05:27:36;100540.56;;;9.05;80.00
43364;BME280;40636;52.424;-1.948;2023-11-21T05:30:03;100556.97;;;9.04;80.01
43364;BME280;40636;52.424;-1.948;2023-11-21T05:32:35;100563.03;;;9.03;80.29
43364;BME280;40636;52.424;-1.948;2023-11-21T05:35:02;100552.66;;;9.03;80.67
43364;BME280;40636;52.424;-1.948;2023-11-21T05:37:29;100556.97;;;9.01;79.74
43364;BME280;40636;52.424;-1.948;2023-11-21T05:39:56;100561.25;;;8.99;79.89
43364;BME280;40636;52.424;-1.948;2023-11-21T05:42:23;100557.81;;;9.00;80.20
43364;BME280;40636;52.424;-1.948;2023-11-21T05:44:50;100554.34;;;8.97;80.30
43364;BME280;40636;52.424;-1.948;2023-11-21T05:47:17;100575.91;;;8.94;80.12
43364;BME280;40636;52.424;-1.948;2023-11-21T05:49:45;100563.81;;;8.93;80.34
43364;BME280;40636;52.424;-1.948;2023-11-21T05:52:17;100568.97;;;8.90;80.15
43364;BME280;40636;52.424;-1.948;2023-11-21T05:54:44;100596.59;;;8.90;80.24
43364;BME280;40636;52.424;-1.948;2023-11-21T05:57:11;100589.66;;;8.85;78.66
43364;BME280;40636;52.424;-1.948;2023-11-21T05:59:38;100589.66;;;8.84;79.82
43364;BME280;40636;52.424;-1.948;2023-11-21T06:02:04;100593.97;;;8.83;80.21
43364;BME280;40636;52.424;-1.948;2023-11-21T06:04:31;100587.91;;;8.81;79.86
43364;BME280;40636;52.424;-1.948;2023-11-21T06:06:58;100587.91;;;8.81;80.03
43364;BME280;40636;52.424;-1.948;2023-11-21T06:09:26;100596.53;;;8.79;79.95
43364;BME280;40636;52.424;-1.948;2023-11-21T06:11:52;100598.25;;;8.80;80.11
43364;BME280;40636;52.424;-1.948;2023-11-21T06:14:19;100599.13;;;8.79;80.66
43364;BME280;40636;52.424;-1.948;2023-11-21T06:16:48;100600.81;;;8.77;79.54
43364;BME280;40636;52.424;-1.948;2023-11-21T06:19:17;100625.00;;;8.76;79.60
43364;BME280;40636;52.424;-1.948;2023-11-21T06:21:47;100618.94;;;8.74;80.00
43364;BME280;40636;52.424;-1.948;2023-11-21T06:24:14;100629.28;;;8.72;79.66
43364;BME280;40636;52.424;-1.948;2023-11-21T06:26:42;100640.50;;;8.73;79.25
43364;BME280;40636;52.424;-1.948;2023-11-21T06:29:10;100646.53;;;8.70;79.35
43364;BME280;40636;52.424;-1.948;2023-11-21T06:31:37;100641.34;;;8.70;79.86
43364;BME280;40636;52.424;-1.948;2023-11-21T06:34:04;100636.16;;;8.69;79.98
43364;BME280;40636;52.424;-1.948;2023-11-21T06:36:31;100646.50;;;8.67;80.49
43364;BME280;40636;52.424;-1.948;2023-11-21T06:38:57;100641.25;;;8.64;79.26
43364;BME280;40636;52.424;-1.948;2023-11-21T06:41:24;100652.47;;;8.63;79.29
43364;BME280;40636;52.424;-1.948;2023-11-21T06:43:51;100657.63;;;8.62;80.29
43364;BME280;40636;52.424;-1.948;2023-11-21T06:46:18;100664.56;;;8.63;80.08
43364;BME280;40636;52.424;-1.948;2023-11-21T06:48:46;100663.69;;;8.62;79.66
43364;BME280;40636;52.424;-1.948;2023-11-21T06:51:13;100658.47;;;8.59;80.24
43364;BME280;40636;52.424;-1.948;2023-11-21T06:53:40;100661.06;;;8.59;79.83
43364;BME280;40636;52.424;-1.948;2023-11-21T06:56:15;100653.31;;;8.61;79.84
43364;BME280;40636;52.424;-1.948;2023-11-21T06:58:43;100676.56;;;8.56;79.53
43364;BME280;40636;52.424;-1.948;2023-11-21T07:01:13;100672.25;;;8.55;80.03
43364;BME280;40636;52.424;-1.948;2023-11-21T07:03:41;100678.25;;;8.52;79.80
43364;BME280;40636;52.424;-1.948;2023-11-21T07:06:08;100686.00;;;8.49;80.88
43364;BME280;40636;52.424;-1.948;2023-11-21T07:08:35;100694.63;;;8.48;80.50
43364;BME280;40636;52.424;-1.948;2023-11-21T07:11:02;100689.41;;;8.45;80.22
43364;BME280;40636;52.424;-1.948;2023-11-21T07:13:30;100691.97;;;8.44;81.54
43364;BME280;40636;52.424;-1.948;2023-11-21T07:15:58;100693.72;;;8.45;81.40
43364;BME280;40636;52.424;-1.948;2023-11-21T07:18:26;100698.88;;;8.43;82.11
43364;BME280;40636;52.424;-1.948;2023-11-21T07:20:52;100690.22;;;8.41;81.26
43364;BME280;40636;52.424;-1.948;2023-11-21T07:23:19;100706.59;;;8.39;81.41
43364;BME280;40636;52.424;-1.948;2023-11-21T07:25:49;100703.97;;;8.36;81.75
43364;BME280;40636;52.424;-1.948;2023-11-21T07:28:15;100703.94;;;8.34;82.42
43364;BME280;40636;52.424;-1.948;2023-11-21T07:30:42;100705.59;;;8.29;82.61
43364;BME280;40636;52.424;-1.948;2023-11-21T07:33:10;100720.25;;;8.29;82.74
43364;BME280;40636;52.424;-1.948;2023-11-21T07:35:36;100723.69;;;8.28;82.82
43364;BME280;40636;52.424;-1.948;2023-11-21T07:38:03;100732.31;;;8.28;82.24
43364;BME280;40636;52.424;-1.948;2023-11-21T07:40:30;100738.38;;;8.29;82.15
43364;BME280;40636;52.424;-1.948;2023-11-21T07:42:57;100740.94;;;8.29;82.85
43364;BME280;40636;52.424;-1.948;2023-11-21T07:45:24;100748.69;;;8.27;82.36
43364;BME280;40636;52.424;-1.948;2023-11-21T07:47:54;100759.91;;;8.26;82.80
43364;BME280;40636;52.424;-1.948;2023-11-21T07:50:22;100771.97;;;8.25;83.65
43364;BME280;40636;52.424;-1.948;2023-11-21T07:52:49;100759.00;;;8.24;83.39
43364;BME280;40636;52.424;-1.948;2023-11-21T07:55:16;100759.00;;;8.24;83.38
43364;BME280;40636;52.424;-1.948;2023-11-21T07:57:43;100765.91;;;8.23;83.30
43364;BME280;40636;52.424;-1.948;2023-11-21T08:00:10;100764.22;;;8.25;83.09
43364;BME280;40636;52.424;-1.948;2023-11-21T08:02:39;100771.16;;;8.28;82.80
43364;BME280;40636;52.424;-1.948;2023-11-21T08:05:09;100778.06;;;8.29;83.61
43364;BME280;40636;52.424;-1.948;2023-11-21T08:07:50;100779.81;;;8.30;83.54
43364;BME280;40636;52.424;-1.948;2023-11-21T08:10:17;100792.75;;;8.32;83.23
43364;BME280;40636;52.424;-1.948;2023-11-21T08:12:44;100786.72;;;8.33;83.20
43364;BME280;40636;52.424;-1.948;2023-11-21T08:15:11;100785.06;;;8.33;83.79
43364;BME280;40636;52.424;-1.948;2023-11-21T08:17:37;100792.75;;;8.32;83.33
43364;BME280;40636;52.424;-1.948;2023-11-21T08:20:06;100799.66;;;8.31;83.17
43364;BME280;40636;52.424;-1.948;2023-11-21T08:22:35;100813.44;;;8.30;84.14
43364;BME280;40636;52.424;-1.948;2023-11-21T08:25:02;100808.28;;;8.30;83.81
43364;BME280;40636;52.424;-1.948;2023-11-21T08:27:31;100823.81;;;8.32;84.44
43364;BME280;40636;52.424;-1.948;2023-11-21T08:29:58;100829.94;;;8.34;83.99
43364;BME280;40636;52.424;-1.948;2023-11-21T08:32:25;100822.19;;;8.35;84.57
43364;BME280;40636;52.424;-1.948;2023-11-21T08:34:52;100841.16;;;8.36;84.16
43364;BME280;40636;52.424;-1.948;2023-11-21T08:37:19;100838.59;;;8.37;83.87
43364;BME280;40636;52.424;-1.948;2023-11-21T08:39:47;100836.00;;;8.37;83.58
43364;BME280;40636;52.424;-1.948;2023-11-21T08:42:15;100838.59;;;8.37;84.15
43364;BME280;40636;52.424;-1.948;2023-11-21T08:44:41;100837.75;;;8.38;83.90
43364;BME280;40636;52.424;-1.948;2023-11-21T08:47:09;100849.88;;;8.41;84.20
43364;BME280;40636;52.424;-1.948;2023-11-21T08:49:36;100852.47;;;8.42;83.82
43364;BME280;40636;52.424;-1.948;2023-11-21T08:52:04;100855.09;;;8.45;84.27
43364;BME280;40636;52.424;-1.948;2023-11-21T08:54:32;100857.72;;;8.47;83.58
43364;BME280;40636;52.424;-1.948;2023-11-21T08:56:58;100866.38;;;8.49;84.24
43364;BME280;40636;52.424;-1.948;2023-11-21T08:59:26;100869.84;;;8.51;84.49
43364;BME280;40636;52.424;-1.948;2023-11-21T09:01:53;100873.34;;;8.54;83.80
43364;BME280;40636;52.424;-1.948;2023-11-21T09:04:20;100885.47;;;8.57;83.72
43364;BME280;40636;52.424;-1.948;2023-11-21T09:06:48;100876.88;;;8.60;84.07
43364;BME280;40636;52.424;-1.948;2023-11-21T09:09:15;100880.38;;;8.63;83.89
43364;BME280;40636;52.424;-1.948;2023-11-21T09:11:42;100887.31;;;8.66;83.43
43364;BME280;40636;52.424;-1.948;2023-11-21T09:14:11;100893.38;;;8.66;83.97
43364;BME280;40636;52.424;-1.948;2023-11-21T09:16:39;100909.84;;;8.68;83.70
43364;BME280;40636;52.424;-1.948;2023-11-21T09:19:06;100909.03;;;8.72;83.90
43364;BME280;40636;52.424;-1.948;2023-11-21T09:21:33;100904.75;;;8.76;83.68
43364;BME280;40636;52.424;-1.948;2023-11-21T09:24:00;100899.63;;;8.79;83.72
43364;BME280;40636;52.424;-1.948;2023-11-21T09:26:28;100910.03;;;8.83;82.62
43364;BME280;40636;52.424;-1.948;2023-11-21T09:28:57;100910.06;;;8.86;82.50
43364;BME280;40636;52.424;-1.948;2023-11-21T09:31:25;100915.28;;;8.88;83.02
43364;BME280;40636;52.424;-1.948;2023-11-21T09:33:56;100917.03;;;8.91;82.61
43364;BME280;40636;52.424;-1.948;2023-11-21T09:36:25;100917.06;;;8.94;82.74
43364;BME280;40636;52.424;-1.948;2023-11-21T09:38:55;100922.28;;;8.95;82.37
43364;BME280;40636;52.424;-1.948;2023-11-21T09:41:40;100926.63;;;8.96;81.91
43364;BME280;40636;52.424;-1.948;2023-11-21T09:44:13;100931.84;;;8.99;82.75
43364;BME280;40636;52.424;-1.948;2023-11-21T09:46:47;100938.75;;;9.00;82.16
43364;BME280;40636;52.424;-1.948;2023-11-21T09:49:22;100943.97;;;9.03;82.30
43364;BME280;40636;52.424;-1.948;2023-11-21T09:51:54;100950.06;;;9.05;82.05
43364;BME280;40636;52.424;-1.948;2023-11-21T09:54:25;100950.06;;;9.07;81.99
43364;BME280;40636;52.424;-1.948;2023-11-21T09:56:54;100952.69;;;9.08;81.54
43364;BME280;40636;52.424;-1.948;2023-11-21T09:59:22;100949.28;;;9.12;82.04
43364;BME280;40636;52.424;-1.948;2023-11-21T10:01:50;100941.53;;;9.14;81.57
43364;BME280;40636;52.424;-1.948;2023-11-21T10:04:18;100938.09;;;9.16;81.53
43364;BME280;40636;52.424;-1.948;2023-11-21T10:06:50;100941.56;;;9.18;81.50
43364;BME280;40636;52.424;-1.948;2023-11-21T10:09:21;100953.72;;;9.23;81.32
43364;BME280;40636;52.424;-1.948;2023-11-21T10:11:51;100964.97;;;9.25;81.40
43364;BME280;40636;52.424;-1.948;2023-11-21T10:14:24;100960.69;;;9.25;81.77
43364;BME280;40636;52.424;-1.948;2023-11-21T10:16:57;100971.09;;;9.28;81.70
43364;BME280;40636;52.424;-1.948;2023-11-21T10:19:26;100976.31;;;9.30;81.17
43364;BME280;40636;52.424;-1.948;2023-11-21T10:21:55;100961.63;;;9.30;81.40
43364;BME280;40636;52.424;-1.948;2023-11-21T10:24:27;100982.38;;;9.32;81.23
43364;BME280;40636;52.424;-1.948;2023-11-21T10:27:04;100983.22;;;9.31;80.63
43364;BME280;40636;52.424;-1.948;2023-11-21T10:29:33;100985.84;;;9.32;80.74
43364;BME280;40636;52.424;-1.948;2023-11-21T10:32:03;100988.47;;;9.34;81.75
43364;BME280;40636;52.424;-1.948;2023-11-21T10:34:31;100997.09;;;9.34;80.76
43364;BME280;40636;52.424;-1.948;2023-11-21T10:37:11;101003.16;;;9.35;81.63
43364;BME280;40636;52.424;-1.948;2023-11-21T10:39:40;101007.50;;;9.36;81.77
43364;BME280;40636;52.424;-1.948;2023-11-21T10:42:08;101014.44;;;9.37;81.36
43364;BME280;40636;52.424;-1.948;2023-11-21T10:44:37;101013.56;;;9.36;81.31
43364;BME280;40636;52.424;-1.948;2023-11-21T10:47:08;101022.22;;;9.37;81.24
43364;BME280;40636;52.424;-1.948;2023-11-21T10:49:39;101016.16;;;9.36;81.09
43364;BME280;40636;52.424;-1.948;2023-11-21T10:52:08;101038.59;;;9.34;81.51
43364;BME280;40636;52.424;-1.948;2023-11-21T10:54:38;101032.53;;;9.32;80.80
43364;BME280;40636;52.424;-1.948;2023-11-21T10:57:07;101034.25;;;9.32;82.00
43364;BME280;40636;52.424;-1.948;2023-11-21T10:59:35;101038.56;;;9.31;81.94
43364;BME280;40636;52.424;-1.948;2023-11-21T11:02:18;101043.72;;;9.30;81.85
43364;BME280;40636;52.424;-1.948;2023-11-21T11:04:49;101041.84;;;9.21;82.91
43364;BME280;40636;52.424;-1.948;2023-11-21T11:07:20;101050.38;;;9.14;82.55
43364;BME280;40636;52.424;-1.948;2023-11-21T11:09:50;101055.56;;;9.12;83.04
43364;BME280;40636;52.424;-1.948;2023-11-21T11:12:18;101050.31;;;9.08;83.79
43364;BME280;40636;52.424;-1.948;2023-11-21T11:14:48;101049.38;;;9.04;83.92
43364;BME280;40636;52.424;-1.948;2023-11-21T11:17:19;101052.81;;;9.02;84.27
43364;BME280;40636;52.424;-1.948;2023-11-21T11:19:50;101058.84;;;9.01;84.45
43364;BME280;40636;52.424;-1.948;2023-11-21T11:22:29;101058.81;;;8.99;84.20
43364;BME280;40636;52.424;-1.948;2023-11-21T11:27:56;101053.66;;;9.01;85.27
43364;BME280;40636;52.424;-1.948;2023-11-21T11:38:47;101058.03;;;9.05;85.39
43364;BME280;40636;52.424;-1.948;2023-11-21T11:41:27;101074.47;;;9.07;85.65
43364;BME280;40636;52.424;-1.948;2023-11-21T11:43:58;101063.22;;;9.05;85.21
43364;BME280;40636;52.424;-1.948;2023-11-21T11:46:41;101064.09;;;9.05;85.14
43364;BME280;40636;52.424;-1.948;2023-11-21T11:49:29;101060.63;;;9.05;85.13
43364;BME280;40636;52.424;-1.948;2023-11-21T11:55:14;101084.03;;;9.11;83.98
43364;BME280;40636;52.424;-1.948;2023-11-21T11:57:51;101091.88;;;9.15;84.46
43364;BME280;40636;52.424;-1.948;2023-11-21T12:00:34;101094.59;;;9.23;84.53
43364;BME280;40636;52.424;-1.948;2023-11-21T12:03:06;101096.44;;;9.29;84.35
43364;BME280;40636;52.424;-1.948;2023-11-21T12:05:35;101080.94;;;9.33;84.04
43364;BME280;40636;52.424;-1.948;2023-11-21T12:08:07;101079.16;;;9.31;83.04
43364;BME280;40636;52.424;-1.948;2023-11-21T12:10:38;101080.84;;;9.27;82.67
43364;BME280;40636;52.424;-1.948;2023-11-21T12:13:11;101098.00;;;9.20;82.83
43364;BME280;40636;52.424;-1.948;2023-11-21T12:15:42;101103.94;;;9.13;83.12
43364;BME280;40636;52.424;-1.948;2023-11-21T12:18:11;101115.19;;;9.14;83.28
43364;BME280;40636;52.424;-1.948;2023-11-21T12:20:39;101129.84;;;9.12;83.46
43364;BME280;40636;52.424;-1.948;2023-11-21T12:23:08;101121.22;;;9.11;83.57
43364;BME280;40636;52.424;-1.948;2023-11-21T12:25:39;101116.88;;;9.12;83.92
43364;BME280;40636;52.424;-1.948;2023-11-21T12:28:07;101123.81;;;9.13;83.44
43364;BME280;40636;52.424;-1.948;2023-11-21T12:30:36;101116.03;;;9.13;83.13
43364;BME280;40636;52.424;-1.948;2023-11-21T12:33:06;101128.16;;;9.14;83.23
43364;BME280;40636;52.424;-1.948;2023-11-21T12:35:37;101137.69;;;9.15;83.29
43364;BME280;40636;52.424;-1.948;2023-11-21T12:38:06;101131.69;;;9.19;83.24
43364;BME280;40636;52.424;-1.948;2023-11-21T12:40:36;101120.50;;;9.23;83.63
43364;BME280;40636;52.424;-1.948;2023-11-21T12:43:07;101118.88;;;9.27;83.14
43364;BME280;40636;52.424;-1.948;2023-11-21T12:45:35;101119.75;;;9.27;83.61
43364;BME280;40636;52.424;-1.948;2023-11-21T12:48:05;101136.16;;;9.26;82.50
43364;BME280;40636;52.424;-1.948;2023-11-21T12:50:39;101133.56;;;9.26;83.04
43364;BME280;40636;52.424;-1.948;2023-11-21T12:53:11;101153.47;;;9.29;82.42
43364;BME280;40636;52.424;-1.948;2023-11-21T12:55:40;101148.34;;;9.32;82.51
43364;BME280;40636;52.424;-1.948;2023-11-21T12:58:10;101155.28;;;9.34;82.41
43364;BME280;40636;52.424;-1.948;2023-11-21T13:00:46;101157.09;;;9.40;82.25
43364;BME280;40636;52.424;-1.948;2023-11-21T13:03:16;101155.41;;;9.43;81.50
43364;BME280;40636;52.424;-1.948;2023-11-21T13:05:48;101142.50;;;9.48;82.02
43364;BME280;40636;52.424;-1.948;2023-11-21T13:08:23;101152.91;;;9.49;80.54
43364;BME280;40636;52.424;-1.948;2023-11-21T13:10:56;101152.06;;;9.50;80.87